sensor_id;sensor_type;location;lat;lon;timestamp;P1;durP1;ratioP1;P2;durP2;ratioP2
26163;SDS011;13914;48.178;11.716;2023-05-19T00:01:41;14.63;;;4.20;;
26163;SDS011;13914;48.178;11.716;2023-05-19T00:04:09;11.63;;;3.90;;
26163;SDS011;13914;48.178;11.716;2023-05-19T00:06:38;15.90;;;4.00;;
26163;SDS011;13914;48.178;11.716;2023-05-19T00:09:06;11.60;;;4.00;;
26163;SDS011;13914;48.178;11.716;2023-05-19T00:11:35;9.82;;;3.63;;
26163;SDS011;13914;48.178;11.716;2023-05-19T00:14:03;14.70;;;4.28;;
26163;SDS011;13914;48.178;11.716;2023-05-19T00:16:32;8.63;;;3.70;;
26163;SDS011;13914;48.178;11.716;2023-05-19T00:18:58;16.30;;;4.45;;
26163;SDS011;13914;48.178;11.716;2023-05-19T00:21:26;15.50;;;4.30;;
26163;SDS011;13914;48.178;11.716;2023-05-19T00:23:53;10.15;;;3.92;;
26163;SDS011;13914;48.178;11.716;2023-05-19T00:28:46;12.93;;;4.13;;
26163;SDS011;13914;48.178;11.716;2023-05-19T00:31:13;14.93;;;4.53;;
26163;SDS011;13914;48.178;11.716;2023-05-19T00:33:39;12.65;;;4.30;;
26163;SDS011;13914;48.178;11.716;2023-05-19T00:36:05;11.88;;;3.50;;
26163;SDS011;13914;48.178;11.716;2023-05-19T00:38:32;10.95;;;3.85;;
26163;SDS011;13914;48.178;11.716;2023-05-19T00:41:00;10.40;;;4.10;;
26163;SDS011;13914;48.178;11.716;2023-05-19T00:43:27;8.25;;;3.53;;
26163;SDS011;13914;48.178;11.716;2023-05-19T00:46:00;12.52;;;3.55;;
26163;SDS011;13914;48.178;11.716;2023-05-19T00:48:26;16.30;;;4.05;;
26163;SDS011;13914;48.178;11.716;2023-05-19T00:50:53;10.10;;;3.55;;
26163;SDS011;13914;48.178;11.716;2023-05-19T00:53:28;10.73;;;3.67;;
26163;SDS011;13914;48.178;11.716;2023-05-19T00:55:56;12.15;;;3.83;;
26163;SDS011;13914;48.178;11.716;2023-05-19T00:58:24;16.33;;;4.13;;
26163;SDS011;13914;48.178;11.716;2023-05-19T01:00:55;10.43;;;3.75;;
26163;SDS011;13914;48.178;11.716;2023-05-19T01:03:30;11.20;;;4.15;;
26163;SDS011;13914;48.178;11.716;2023-05-19T01:05:59;12.00;;;3.90;;
26163;SDS011;13914;48.178;11.716;2023-05-19T01:08:30;8.38;;;3.38;;
26163;SDS011;13914;48.178;11.716;2023-05-19T01:10:57;9.52;;;4.35;;
26163;SDS011;13914;48.178;11.716;2023-05-19T01:13:24;11.77;;;4.72;;
26163;SDS011;13914;48.178;11.716;2023-05-19T01:21:37;13.50;;;4.35;;
26163;SDS011;13914;48.178;11.716;2023-05-19T01:32:59;10.63;;;4.18;;
26163;SDS011;13914;48.178;11.716;2023-05-19T01:35:28;10.27;;;4.40;;
26163;SDS011;13914;48.178;11.716;2023-05-19T01:37:57;12.27;;;4.30;;
26163;SDS011;13914;48.178;11.716;2023-05-19T01:40:25;12.57;;;4.75;;
26163;SDS011;13914;48.178;11.716;2023-05-19T01:42:53;12.23;;;4.80;;
26163;SDS011;13914;48.178;11.716;2023-05-19T01:45:22;9.20;;;4.40;;
26163;SDS011;13914;48.178;11.716;2023-05-19T01:47:50;8.57;;;3.92;;
26163;SDS011;13914;48.178;11.716;2023-05-19T01:50:22;13.32;;;5.57;;
26163;SDS011;13914;48.178;11.716;2023-05-19T01:52:48;12.68;;;4.95;;
26163;SDS011;13914;48.178;11.716;2023-05-19T01:55:14;10.25;;;4.45;;
26163;SDS011;13914;48.178;11.716;2023-05-19T02:10:32;9.45;;;4.13;;
26163;SDS011;13914;48.178;11.716;2023-05-19T02:12:44;8.27;;;4.18;;
26163;SDS011;13914;48.178;11.716;2023-05-19T02:15:23;14.65;;;4.50;;
26163;SDS011;13914;48.178;11.716;2023-05-19T02:17:54;11.50;;;4.50;;
26163;SDS011;13914;48.178;11.716;2023-05-19T02:20:24;10.48;;;4.00;;
26163;SDS011;13914;48.178;11.716;2023-05-19T02:22:50;10.02;;;4.57;;
26163;SDS011;13914;48.178;11.716;2023-05-19T02:25:16;11.20;;;4.60;;
26163;SDS011;13914;48.178;11.716;2023-05-19T02:27:41;14.45;;;4.60;;
26163;SDS011;13914;48.178;11.716;2023-05-19T02:30:08;8.63;;;4.40;;
26163;SDS011;13914;48.178;11.716;2023-05-19T02:32:34;13.38;;;3.88;;
26163;SDS011;13914;48.178;11.716;2023-05-19T02:35:00;17.70;;;5.00;;
26163;SDS011;13914;48.178;11.716;2023-05-19T02:37:27;18.70;;;5.18;;
26163;SDS011;13914;48.178;11.716;2023-05-19T02:39:53;11.43;;;4.80;;
26163;SDS011;13914;48.178;11.716;2023-05-19T02:42:19;13.93;;;4.63;;
26163;SDS011;13914;48.178;11.716;2023-05-19T02:44:45;10.00;;;3.72;;
26163;SDS011;13914;48.178;11.716;2023-05-19T02:47:11;15.00;;;4.40;;
26163;SDS011;13914;48.178;11.716;2023-05-19T02:49:37;10.45;;;4.55;;
26163;SDS011;13914;48.178;11.716;2023-05-19T02:52:04;15.70;;;4.82;;
26163;SDS011;13914;48.178;11.716;2023-05-19T02:54:31;14.60;;;5.13;;
26163;SDS011;13914;48.178;11.716;2023-05-19T02:56:58;17.15;;;4.97;;
26163;SDS011;13914;48.178;11.716;2023-05-19T02:59:24;11.88;;;4.57;;
26163;SDS011;13914;48.178;11.716;2023-05-19T03:01:57;9.65;;;4.28;;
26163;SDS011;13914;48.178;11.716;2023-05-19T03:04:25;10.07;;;4.22;;
26163;SDS011;13914;48.178;11.716;2023-05-19T03:06:51;15.00;;;4.35;;
26163;SDS011;13914;48.178;11.716;2023-05-19T03:14:09;15.38;;;4.78;;
26163;SDS011;13914;48.178;11.716;2023-05-19T03:16:39;12.20;;;4.70;;
26163;SDS011;13914;48.178;11.716;2023-05-19T03:19:06;17.15;;;6.03;;
26163;SDS011;13914;48.178;11.716;2023-05-19T03:21:35;15.10;;;4.82;;
26163;SDS011;13914;48.178;11.716;2023-05-19T03:24:03;14.90;;;5.13;;
26163;SDS011;13914;48.178;11.716;2023-05-19T03:26:29;7.97;;;3.83;;
26163;SDS011;13914;48.178;11.716;2023-05-19T03:28:55;14.67;;;5.03;;
26163;SDS011;13914;48.178;11.716;2023-05-19T03:31:20;13.47;;;4.43;;
26163;SDS011;13914;48.178;11.716;2023-05-19T03:33:46;11.82;;;4.57;;
26163;SDS011;13914;48.178;11.716;2023-05-19T03:36:12;8.67;;;4.47;;
26163;SDS011;13914;48.178;11.716;2023-05-19T03:38:38;12.43;;;4.72;;
26163;SDS011;13914;48.178;11.716;2023-05-19T03:41:04;12.25;;;5.20;;
26163;SDS011;13914;48.178;11.716;2023-05-19T03:43:30;10.45;;;4.53;;
26163;SDS011;13914;48.178;11.716;2023-05-19T03:45:56;13.80;;;5.05;;
26163;SDS011;13914;48.178;11.716;2023-05-19T03:48:22;14.43;;;4.32;;
26163;SDS011;13914;48.178;11.716;2023-05-19T03:50:48;8.50;;;4.15;;
26163;SDS011;13914;48.178;11.716;2023-05-19T03:53:14;12.88;;;4.30;;
26163;SDS011;13914;48.178;11.716;2023-05-19T03:55:39;11.40;;;4.70;;
26163;SDS011;13914;48.178;11.716;2023-05-19T03:58:05;10.25;;;4.47;;
26163;SDS011;13914;48.178;11.716;2023-05-19T04:00:31;12.85;;;4.38;;
26163;SDS011;13914;48.178;11.716;2023-05-19T04:02:57;18.20;;;4.38;;
26163;SDS011;13914;48.178;11.716;2023-05-19T04:05:24;11.43;;;4.30;;
26163;SDS011;13914;48.178;11.716;2023-05-19T04:07:50;16.05;;;4.53;;
26163;SDS011;13914;48.178;11.716;2023-05-19T04:10:15;13.63;;;4.60;;
26163;SDS011;13914;48.178;11.716;2023-05-19T04:12:41;12.15;;;4.95;;
26163;SDS011;13914;48.178;11.716;2023-05-19T04:15:07;12.70;;;5.07;;
26163;SDS011;13914;48.178;11.716;2023-05-19T04:17:35;11.98;;;4.32;;
26163;SDS011;13914;48.178;11.716;2023-05-19T04:20:01;11.05;;;4.30;;
26163;SDS011;13914;48.178;11.716;2023-05-19T04:22:29;12.63;;;4.05;;
26163;SDS011;13914;48.178;11.716;2023-05-19T04:24:55;15.10;;;4.60;;
26163;SDS011;13914;48.178;11.716;2023-05-19T04:27:22;10.48;;;4.45;;
26163;SDS011;13914;48.178;11.716;2023-05-19T04:29:48;14.77;;;4.40;;
26163;SDS011;13914;48.178;11.716;2023-05-19T04:32:14;13.52;;;4.55;;
26163;SDS011;13914;48.178;11.716;2023-05-19T04:34:41;10.95;;;4.18;;
26163;SDS011;13914;48.178;11.716;2023-05-19T04:37:13;11.52;;;4.82;;
26163;SDS011;13914;48.178;11.716;2023-05-19T04:39:40;13.05;;;4.50;;
26163;SDS011;13914;48.178;11.716;2023-05-19T04:42:08;19.17;;;5.40;;
26163;SDS011;13914;48.178;11.716;2023-05-19T04:44:35;7.78;;;4.35;;
26163;SDS011;13914;48.178;11.716;2023-05-19T04:47:05;11.55;;;4.88;;
26163;SDS011;13914;48.178;11.716;2023-05-19T04:49:33;11.00;;;4.72;;
26163;SDS011;13914;48.178;11.716;2023-05-19T04:52:04;12.57;;;4.80;;
26163;SDS011;13914;48.178;11.716;2023-05-19T04:54:37;13.18;;;5.07;;
26163;SDS011;13914;48.178;11.716;2023-05-19T04:57:04;9.27;;;4.18;;
26163;SDS011;13914;48.178;11.716;2023-05-19T04:59:30;15.57;;;5.38;;
26163;SDS011;13914;48.178;11.716;2023-05-19T05:01:56;18.17;;;5.07;;
26163;SDS011;13914;48.178;11.716;2023-05-19T05:04:22;11.77;;;4.97;;
26163;SDS011;13914;48.178;11.716;2023-05-19T05:06:48;11.68;;;4.70;;
26163;SDS011;13914;48.178;11.716;2023-05-19T05:09:14;11.25;;;5.15;;
26163;SDS011;13914;48.178;11.716;2023-05-19T05:11:41;12.82;;;4.90;;
26163;SDS011;13914;48.178;11.716;2023-05-19T05:16:34;13.75;;;4.82;;
26163;SDS011;13914;48.178;11.716;2023-05-19T05:21:27;16.67;;;5.22;;
26163;SDS011;13914;48.178;11.716;2023-05-19T05:23:54;12.15;;;4.80;;
26163;SDS011;13914;48.178;11.716;2023-05-19T05:26:20;8.60;;;3.97;;
26163;SDS011;13914;48.178;11.716;2023-05-19T05:28:49;19.35;;;5.47;;
26163;SDS011;13914;48.178;11.716;2023-05-19T05:31:15;13.25;;;5.47;;
26163;SDS011;13914;48.178;11.716;2023-05-19T05:33:41;11.98;;;5.05;;
26163;SDS011;13914;48.178;11.716;2023-05-19T05:36:07;14.90;;;5.47;;
26163;SDS011;13914;48.178;11.716;2023-05-19T05:38:33;18.45;;;5.68;;
26163;SDS011;13914;48.178;11.716;2023-05-19T05:41:00;10.90;;;5.03;;
26163;SDS011;13914;48.178;11.716;2023-05-19T05:43:27;13.93;;;5.35;;
26163;SDS011;13914;48.178;11.716;2023-05-19T05:45:54;18.88;;;6.35;;
26163;SDS011;13914;48.178;11.716;2023-05-19T05:48:21;17.63;;;4.70;;
26163;SDS011;13914;48.178;11.716;2023-05-19T05:50:47;12.90;;;5.80;;
26163;SDS011;13914;48.178;11.716;2023-05-19T05:53:18;10.75;;;4.53;;
26163;SDS011;13914;48.178;11.716;2023-05-19T05:55:45;13.88;;;4.72;;
26163;SDS011;13914;48.178;11.716;2023-05-19T05:58:12;18.27;;;5.45;;
26163;SDS011;13914;48.178;11.716;2023-05-19T06:03:07;19.17;;;4.93;;
26163;SDS011;13914;48.178;11.716;2023-05-19T06:05:35;13.68;;;5.40;;
26163;SDS011;13914;48.178;11.716;2023-05-19T06:08:01;11.90;;;4.90;;
26163;SDS011;13914;48.178;11.716;2023-05-19T06:12:54;10.95;;;5.72;;
26163;SDS011;13914;48.178;11.716;2023-05-19T06:15:20;15.55;;;4.25;;
26163;SDS011;13914;48.178;11.716;2023-05-19T06:17:48;18.00;;;5.78;;
26163;SDS011;13914;48.178;11.716;2023-05-19T06:20:14;14.88;;;4.80;;
26163;SDS011;13914;48.178;11.716;2023-05-19T06:22:40;13.27;;;5.60;;
26163;SDS011;13914;48.178;11.716;2023-05-19T06:25:06;12.13;;;4.85;;
26163;SDS011;13914;48.178;11.716;2023-05-19T06:27:35;11.45;;;5.05;;
26163;SDS011;13914;48.178;11.716;2023-05-19T06:30:01;11.43;;;4.73;;
26163;SDS011;13914;48.178;11.716;2023-05-19T06:32:27;10.75;;;4.40;;
26163;SDS011;13914;48.178;11.716;2023-05-19T06:34:53;11.75;;;4.88;;
26163;SDS011;13914;48.178;11.716;2023-05-19T06:37:22;9.30;;;4.57;;
26163;SDS011;13914;48.178;11.716;2023-05-19T06:39:52;12.98;;;4.97;;
26163;SDS011;13914;48.178;11.716;2023-05-19T06:42:18;8.75;;;4.75;;
26163;SDS011;13914;48.178;11.716;2023-05-19T06:44:50;9.38;;;5.05;;
26163;SDS011;13914;48.178;11.716;2023-05-19T06:47:16;10.05;;;4.68;;
26163;SDS011;13914;48.178;11.716;2023-05-19T06:49:43;10.65;;;5.07;;
26163;SDS011;13914;48.178;11.716;2023-05-19T06:52:15;15.60;;;5.45;;
26163;SDS011;13914;48.178;11.716;2023-05-19T06:54:41;15.30;;;5.65;;
26163;SDS011;13914;48.178;11.716;2023-05-19T06:57:07;11.40;;;5.03;;
26163;SDS011;13914;48.178;11.716;2023-05-19T06:59:33;11.82;;;5.28;;
26163;SDS011;13914;48.178;11.716;2023-05-19T07:01:58;11.18;;;6.05;;
26163;SDS011;13914;48.178;11.716;2023-05-19T07:04:26;10.63;;;4.60;;
26163;SDS011;13914;48.178;11.716;2023-05-19T07:06:52;12.10;;;4.57;;
26163;SDS011;13914;48.178;11.716;2023-05-19T07:09:19;11.43;;;5.00;;
26163;SDS011;13914;48.178;11.716;2023-05-19T07:11:44;7.40;;;3.60;;
26163;SDS011;13914;48.178;11.716;2023-05-19T07:14:10;12.60;;;5.30;;
26163;SDS011;13914;48.178;11.716;2023-05-19T07:16:36;13.57;;;5.72;;
26163;SDS011;13914;48.178;11.716;2023-05-19T07:19:02;10.93;;;4.90;;
26163;SDS011;13914;48.178;11.716;2023-05-19T07:21:28;10.73;;;4.95;;
26163;SDS011;13914;48.178;11.716;2023-05-19T07:23:53;8.43;;;4.38;;
26163;SDS011;13914;48.178;11.716;2023-05-19T07:26:19;14.82;;;4.95;;
26163;SDS011;13914;48.178;11.716;2023-05-19T07:28:46;13.25;;;4.88;;
26163;SDS011;13914;48.178;11.716;2023-05-19T07:31:12;9.85;;;5.03;;
26163;SDS011;13914;48.178;11.716;2023-05-19T07:33:38;9.00;;;4.20;;
26163;SDS011;13914;48.178;11.716;2023-05-19T07:36:03;12.15;;;5.25;;
26163;SDS011;13914;48.178;11.716;2023-05-19T07:38:29;12.82;;;5.72;;
26163;SDS011;13914;48.178;11.716;2023-05-19T07:40:58;13.25;;;4.93;;
26163;SDS011;13914;48.178;11.716;2023-05-19T07:43:25;10.23;;;4.85;;
26163;SDS011;13914;48.178;11.716;2023-05-19T07:45:51;9.75;;;5.38;;
26163;SDS011;13914;48.178;11.716;2023-05-19T07:48:18;14.00;;;5.10;;
26163;SDS011;13914;48.178;11.716;2023-05-19T07:50:46;8.98;;;5.05;;
26163;SDS011;13914;48.178;11.716;2023-05-19T07:53:13;9.43;;;5.10;;
26163;SDS011;13914;48.178;11.716;2023-05-19T07:55:39;10.20;;;4.85;;
26163;SDS011;13914;48.178;11.716;2023-05-19T07:58:05;8.07;;;4.30;;
26163;SDS011;13914;48.178;11.716;2023-05-19T08:00:31;9.15;;;4.97;;
26163;SDS011;13914;48.178;11.716;2023-05-19T08:02:58;7.78;;;3.88;;
26163;SDS011;13914;48.178;11.716;2023-05-19T08:05:25;13.90;;;4.93;;
26163;SDS011;13914;48.178;11.716;2023-05-19T08:07:51;11.57;;;5.03;;
26163;SDS011;13914;48.178;11.716;2023-05-19T08:10:17;12.00;;;5.13;;
26163;SDS011;13914;48.178;11.716;2023-05-19T08:12:43;8.57;;;4.32;;
26163;SDS011;13914;48.178;11.716;2023-05-19T08:15:09;10.60;;;4.38;;
26163;SDS011;13914;48.178;11.716;2023-05-19T08:17:37;9.00;;;4.15;;
26163;SDS011;13914;48.178;11.716;2023-05-19T08:20:04;8.20;;;4.00;;
26163;SDS011;13914;48.178;11.716;2023-05-19T08:22:32;8.05;;;4.50;;
26163;SDS011;13914;48.178;11.716;2023-05-19T08:24:58;9.15;;;4.53;;
26163;SDS011;13914;48.178;11.716;2023-05-19T08:27:24;8.85;;;4.20;;
26163;SDS011;13914;48.178;11.716;2023-05-19T08:29:50;9.88;;;4.63;;
26163;SDS011;13914;48.178;11.716;2023-05-19T08:32:15;10.63;;;4.53;;
26163;SDS011;13914;48.178;11.716;2023-05-19T08:34:41;11.43;;;4.47;;
26163;SDS011;13914;48.178;11.716;2023-05-19T08:37:07;10.10;;;4.97;;
26163;SDS011;13914;48.178;11.716;2023-05-19T08:39:33;12.52;;;4.55;;
26163;SDS011;13914;48.178;11.716;2023-05-19T08:41:59;9.90;;;5.07;;
26163;SDS011;13914;48.178;11.716;2023-05-19T08:44:27;8.93;;;4.72;;
26163;SDS011;13914;48.178;11.716;2023-05-19T08:46:56;10.13;;;5.03;;
26163;SDS011;13914;48.178;11.716;2023-05-19T08:49:29;10.88;;;5.65;;
26163;SDS011;13914;48.178;11.716;2023-05-19T08:55:16;13.00;;;5.68;;
26163;SDS011;13914;48.178;11.716;2023-05-19T08:57:39;9.80;;;4.80;;
26163;SDS011;13914;48.178;11.716;2023-05-19T09:00:05;9.75;;;5.15;;
26163;SDS011;13914;48.178;11.716;2023-05-19T09:02:36;7.93;;;4.90;;
26163;SDS011;13914;48.178;11.716;2023-05-19T09:07:32;8.60;;;5.30;;
26163;SDS011;13914;48.178;11.716;2023-05-19T09:10:00;8.80;;;4.82;;
26163;SDS011;13914;48.178;11.716;2023-05-19T09:12:26;13.25;;;5.85;;
26163;SDS011;13914;48.178;11.716;2023-05-19T09:14:52;9.35;;;5.28;;
26163;SDS011;13914;48.178;11.716;2023-05-19T09:17:18;8.50;;;5.65;;
26163;SDS011;13914;48.178;11.716;2023-05-19T09:19:44;11.77;;;5.40;;
26163;SDS011;13914;48.178;11.716;2023-05-19T09:22:14;8.77;;;4.38;;
26163;SDS011;13914;48.178;11.716;2023-05-19T09:24:43;9.70;;;5.32;;
26163;SDS011;13914;48.178;11.716;2023-05-19T09:27:10;8.35;;;5.68;;
26163;SDS011;13914;48.178;11.716;2023-05-19T09:29:40;13.90;;;5.43;;
26163;SDS011;13914;48.178;11.716;2023-05-19T09:32:06;12.63;;;5.05;;
26163;SDS011;13914;48.178;11.716;2023-05-19T09:34:32;15.55;;;6.50;;
26163;SDS011;13914;48.178;11.716;2023-05-19T09:36:58;11.67;;;6.30;;
26163;SDS011;13914;48.178;11.716;2023-05-19T09:39:24;13.80;;;6.38;;
26163;SDS011;13914;48.178;11.716;2023-05-19T09:41:53;12.93;;;5.72;;
26163;SDS011;13914;48.178;11.716;2023-05-19T09:44:22;14.27;;;6.00;;
26163;SDS011;13914;48.178;11.716;2023-05-19T09:46:55;14.50;;;6.15;;
26163;SDS011;13914;48.178;11.716;2023-05-19T09:49:23;11.07;;;6.43;;
26163;SDS011;13914;48.178;11.716;2023-05-19T09:54:26;13.35;;;6.70;;
26163;SDS011;13914;48.178;11.716;2023-05-19T09:56:57;9.50;;;6.47;;
26163;SDS011;13914;48.178;11.716;2023-05-19T09:59:28;11.52;;;5.80;;
26163;SDS011;13914;48.178;11.716;2023-05-19T10:01:55;8.52;;;5.32;;
26163;SDS011;13914;48.178;11.716;2023-05-19T10:04:23;10.20;;;6.13;;
26163;SDS011;13914;48.178;11.716;2023-05-19T10:06:54;8.98;;;5.68;;
26163;SDS011;13914;48.178;11.716;2023-05-19T10:09:26;13.90;;;6.55;;
26163;SDS011;13914;48.178;11.716;2023-05-19T10:11:53;12.55;;;5.88;;
26163;SDS011;13914;48.178;11.716;2023-05-19T10:14:21;12.10;;;6.57;;
26163;SDS011;13914;48.178;11.716;2023-05-19T10:16:53;12.93;;;7.13;;
26163;SDS011;13914;48.178;11.716;2023-05-19T10:19:21;14.52;;;7.13;;
26163;SDS011;13914;48.178;11.716;2023-05-19T10:21:52;26.23;;;7.55;;
26163;SDS011;13914;48.178;11.716;2023-05-19T10:26:48;17.00;;;6.43;;
26163;SDS011;13914;48.178;11.716;2023-05-19T10:29:22;10.68;;;6.32;;
26163;SDS011;13914;48.178;11.716;2023-05-19T10:31:55;11.75;;;7.15;;
26163;SDS011;13914;48.178;11.716;2023-05-19T10:40:56;11.48;;;6.28;;
26163;SDS011;13914;48.178;11.716;2023-05-19T10:46:41;15.23;;;7.78;;
26163;SDS011;13914;48.178;11.716;2023-05-19T10:49:08;14.00;;;7.53;;
26163;SDS011;13914;48.178;11.716;2023-05-19T10:51:36;14.63;;;7.18;;
26163;SDS011;13914;48.178;11.716;2023-05-19T10:54:02;17.17;;;8.45;;
26163;SDS011;13914;48.178;11.716;2023-05-19T10:56:33;11.07;;;6.47;;
26163;SDS011;13914;48.178;11.716;2023-05-19T10:59:06;12.05;;;6.35;;
26163;SDS011;13914;48.178;11.716;2023-05-19T11:01:32;14.05;;;7.50;;
26163;SDS011;13914;48.178;11.716;2023-05-19T11:04:04;11.30;;;6.65;;
26163;SDS011;13914;48.178;11.716;2023-05-19T11:06:33;13.32;;;6.95;;
26163;SDS011;13914;48.178;11.716;2023-05-19T11:11:49;13.85;;;7.93;;
26163;SDS011;13914;48.178;11.716;2023-05-19T11:14:17;18.55;;;7.68;;
26163;SDS011;13914;48.178;11.716;2023-05-19T11:16:49;12.50;;;7.05;;
26163;SDS011;13914;48.178;11.716;2023-05-19T11:19:19;10.75;;;7.78;;
26163;SDS011;13914;48.178;11.716;2023-05-19T11:21:50;11.02;;;6.65;;
26163;SDS011;13914;48.178;11.716;2023-05-19T11:27:26;11.37;;;7.00;;
26163;SDS011;13914;48.178;11.716;2023-05-19T11:30:01;12.82;;;7.85;;
26163;SDS011;13914;48.178;11.716;2023-05-19T11:32:31;16.60;;;8.30;;
26163;SDS011;13914;48.178;11.716;2023-05-19T11:34:59;16.67;;;8.73;;
26163;SDS011;13914;48.178;11.716;2023-05-19T11:37:25;14.23;;;8.23;;
26163;SDS011;13914;48.178;11.716;2023-05-19T11:39:55;17.65;;;9.13;;
26163;SDS011;13914;48.178;11.716;2023-05-19T11:42:22;10.85;;;7.68;;
26163;SDS011;13914;48.178;11.716;2023-05-19T11:44:48;12.70;;;8.85;;
26163;SDS011;13914;48.178;11.716;2023-05-19T11:47:14;15.90;;;8.23;;
26163;SDS011;13914;48.178;11.716;2023-05-19T11:49:46;17.70;;;10.13;;
26163;SDS011;13914;48.178;11.716;2023-05-19T11:52:13;9.65;;;7.68;;
26163;SDS011;13914;48.178;11.716;2023-05-19T11:54:39;19.38;;;8.23;;
26163;SDS011;13914;48.178;11.716;2023-05-19T11:57:12;12.55;;;8.02;;
26163;SDS011;13914;48.178;11.716;2023-05-19T11:59:38;16.08;;;7.55;;
26163;SDS011;13914;48.178;11.716;2023-05-19T12:02:23;12.30;;;7.53;;
26163;SDS011;13914;48.178;11.716;2023-05-19T12:04:52;13.13;;;7.22;;
26163;SDS011;13914;48.178;11.716;2023-05-19T12:07:19;12.35;;;7.15;;
26163;SDS011;13914;48.178;11.716;2023-05-19T12:09:49;13.45;;;7.65;;
26163;SDS011;13914;48.178;11.716;2023-05-19T12:12:18;11.82;;;7.05;;
26163;SDS011;13914;48.178;11.716;2023-05-19T12:14:48;16.42;;;8.00;;
26163;SDS011;13914;48.178;11.716;2023-05-19T12:17:19;16.77;;;8.60;;
26163;SDS011;13914;48.178;11.716;2023-05-19T12:19:47;14.60;;;7.95;;
26163;SDS011;13914;48.178;11.716;2023-05-19T12:22:15;9.75;;;7.38;;
26163;SDS011;13914;48.178;11.716;2023-05-19T12:24:42;15.48;;;8.02;;
26163;SDS011;13914;48.178;11.716;2023-05-19T12:27:25;14.95;;;8.95;;
26163;SDS011;13914;48.178;11.716;2023-05-19T12:29:53;13.13;;;8.48;;
26163;SDS011;13914;48.178;11.716;2023-05-19T12:32:26;12.18;;;8.05;;
26163;SDS011;13914;48.178;11.716;2023-05-19T12:34:55;13.38;;;6.75;;
26163;SDS011;13914;48.178;11.716;2023-05-19T12:37:21;16.30;;;8.10;;
26163;SDS011;13914;48.178;11.716;2023-05-19T12:39:52;13.07;;;7.60;;
26163;SDS011;13914;48.178;11.716;2023-05-19T12:42:20;13.18;;;8.00;;
26163;SDS011;13914;48.178;11.716;2023-05-19T12:44:49;13.95;;;7.78;;
26163;SDS011;13914;48.178;11.716;2023-05-19T12:47:18;12.02;;;7.63;;
26163;SDS011;13914;48.178;11.716;2023-05-19T12:50:01;16.77;;;8.40;;
26163;SDS011;13914;48.178;11.716;2023-05-19T12:52:32;10.80;;;8.30;;
26163;SDS011;13914;48.178;11.716;2023-05-19T12:55:11;16.17;;;8.32;;
26163;SDS011;13914;48.178;11.716;2023-05-19T12:57:43;12.18;;;8.50;;
26163;SDS011;13914;48.178;11.716;2023-05-19T13:00:18;12.77;;;8.93;;
26163;SDS011;13914;48.178;11.716;2023-05-19T13:05:44;12.40;;;7.82;;
26163;SDS011;13914;48.178;11.716;2023-05-19T13:08:17;12.77;;;7.47;;
26163;SDS011;13914;48.178;11.716;2023-05-19T13:10:47;12.38;;;7.20;;
26163;SDS011;13914;48.178;11.716;2023-05-19T13:13:15;11.30;;;7.72;;
26163;SDS011;13914;48.178;11.716;2023-05-19T13:15:43;16.48;;;7.65;;
26163;SDS011;13914;48.178;11.716;2023-05-19T13:18:12;11.60;;;7.25;;
26163;SDS011;13914;48.178;11.716;2023-05-19T13:20:39;14.57;;;7.40;;
26163;SDS011;13914;48.178;11.716;2023-05-19T13:23:08;14.82;;;7.78;;
26163;SDS011;13914;48.178;11.716;2023-05-19T13:25:34;10.05;;;7.00;;
26163;SDS011;13914;48.178;11.716;2023-05-19T13:28:02;16.20;;;8.10;;
26163;SDS011;13914;48.178;11.716;2023-05-19T13:30:34;14.23;;;8.57;;
26163;SDS011;13914;48.178;11.716;2023-05-19T13:33:03;9.43;;;7.10;;
26163;SDS011;13914;48.178;11.716;2023-05-19T13:35:28;13.98;;;8.25;;
26163;SDS011;13914;48.178;11.716;2023-05-19T13:38:01;14.57;;;7.45;;
26163;SDS011;13914;48.178;11.716;2023-05-19T13:40:31;13.35;;;8.35;;
26163;SDS011;13914;48.178;11.716;2023-05-19T13:42:58;11.52;;;7.93;;
26163;SDS011;13914;48.178;11.716;2023-05-19T13:45:26;12.20;;;8.50;;
26163;SDS011;13914;48.178;11.716;2023-05-19T13:47:52;14.40;;;7.68;;
26163;SDS011;13914;48.178;11.716;2023-05-19T13:50:18;13.40;;;8.57;;
26163;SDS011;13914;48.178;11.716;2023-05-19T13:52:44;12.82;;;7.30;;
26163;SDS011;13914;48.178;11.716;2023-05-19T13:55:09;12.98;;;9.13;;
26163;SDS011;13914;48.178;11.716;2023-05-19T13:57:35;11.90;;;8.10;;
26163;SDS011;13914;48.178;11.716;2023-05-19T14:00:02;11.63;;;7.53;;
26163;SDS011;13914;48.178;11.716;2023-05-19T14:02:38;10.25;;;7.07;;
26163;SDS011;13914;48.178;11.716;2023-05-19T14:05:07;12.52;;;7.50;;
26163;SDS011;13914;48.178;11.716;2023-05-19T14:07:34;11.60;;;7.57;;
26163;SDS011;13914;48.178;11.716;2023-05-19T14:10:00;13.18;;;7.05;;
26163;SDS011;13914;48.178;11.716;2023-05-19T14:12:27;14.73;;;7.40;;
26163;SDS011;13914;48.178;11.716;2023-05-19T14:14:54;11.15;;;7.55;;
26163;SDS011;13914;48.178;11.716;2023-05-19T14:17:19;13.88;;;6.97;;
26163;SDS011;13914;48.178;11.716;2023-05-19T14:19:45;14.45;;;7.55;;
26163;SDS011;13914;48.178;11.716;2023-05-19T14:22:11;10.27;;;6.43;;
26163;SDS011;13914;48.178;11.716;2023-05-19T14:24:37;14.25;;;7.10;;
26163;SDS011;13914;48.178;11.716;2023-05-19T14:27:03;9.45;;;6.22;;
26163;SDS011;13914;48.178;11.716;2023-05-19T14:29:29;11.40;;;6.20;;
26163;SDS011;13914;48.178;11.716;2023-05-19T14:31:55;9.50;;;6.60;;
26163;SDS011;13914;48.178;11.716;2023-05-19T14:34:21;10.63;;;6.60;;
26163;SDS011;13914;48.178;11.716;2023-05-19T14:36:47;9.75;;;6.30;;
26163;SDS011;13914;48.178;11.716;2023-05-19T14:39:14;9.63;;;6.50;;
26163;SDS011;13914;48.178;11.716;2023-05-19T14:41:42;7.57;;;5.88;;
26163;SDS011;13914;48.178;11.716;2023-05-19T14:44:08;11.52;;;7.32;;
26163;SDS011;13914;48.178;11.716;2023-05-19T14:46:34;10.40;;;6.70;;
26163;SDS011;13914;48.178;11.716;2023-05-19T14:49:00;8.85;;;5.88;;
26163;SDS011;13914;48.178;11.716;2023-05-19T14:51:27;12.63;;;6.43;;
26163;SDS011;13914;48.178;11.716;2023-05-19T14:53:52;11.32;;;6.28;;
26163;SDS011;13914;48.178;11.716;2023-05-19T14:56:18;9.88;;;6.05;;
26163;SDS011;13914;48.178;11.716;2023-05-19T14:58:45;8.38;;;5.45;;
26163;SDS011;13914;48.178;11.716;2023-05-19T15:01:11;9.27;;;6.25;;
26163;SDS011;13914;48.178;11.716;2023-05-19T15:03:37;7.28;;;5.45;;
26163;SDS011;13914;48.178;11.716;2023-05-19T15:06:06;11.80;;;6.55;;
26163;SDS011;13914;48.178;11.716;2023-05-19T15:08:34;7.95;;;5.53;;
26163;SDS011;13914;48.178;11.716;2023-05-19T15:11:03;8.68;;;5.80;;
26163;SDS011;13914;48.178;11.716;2023-05-19T15:13:32;11.30;;;6.45;;
26163;SDS011;13914;48.178;11.716;2023-05-19T15:15:57;11.02;;;6.22;;
26163;SDS011;13914;48.178;11.716;2023-05-19T15:18:23;8.68;;;5.95;;
26163;SDS011;13914;48.178;11.716;2023-05-19T15:20:50;10.52;;;6.20;;
26163;SDS011;13914;48.178;11.716;2023-05-19T15:23:15;11.13;;;5.47;;
26163;SDS011;13914;48.178;11.716;2023-05-19T15:25:41;14.10;;;6.60;;
26163;SDS011;13914;48.178;11.716;2023-05-19T15:28:09;10.35;;;6.25;;
26163;SDS011;13914;48.178;11.716;2023-05-19T15:30:36;11.07;;;6.20;;
26163;SDS011;13914;48.178;11.716;2023-05-19T15:33:02;13.73;;;6.38;;
26163;SDS011;13914;48.178;11.716;2023-05-19T15:35:28;10.00;;;5.15;;
26163;SDS011;13914;48.178;11.716;2023-05-19T15:37:54;9.48;;;6.03;;
26163;SDS011;13914;48.178;11.716;2023-05-19T15:40:20;10.02;;;6.32;;